Time,TemperatureF,DewpointF,PressureIn,WindDirection,WindDirectionDegrees,WindSpeedMPH,WindSpeedGustMPH,Humidity,HourlyPrecipIn,Conditions,Clouds,dailyrainin,SolarRadiationWatts/m^2,SoftwareType,DateUTC
2013-10-04 00:08:00,48.0,21.0,-100.00,SSE,155,6.0,25.0,34,0.00,,,0.00,0.000000,,2013-10-04 06:08:00,
2013-10-04 00:18:00,48.0,21.0,-100.00,SSE,155,6.0,25.0,34,0.00,,,0.00,0.000000,,2013-10-04 06:18:00,
2013-10-04 00:26:00,48.0,21.0,-100.00,SSE,155,6.0,25.0,34,0.00,,,0.00,0.000000,,2013-10-04 06:26:00,
2013-10-04 00:34:00,48.0,20.0,-100.00,SSE,165,12.0,29.0,33,0.00,,,0.00,0.000000,,2013-10-04 06:34:00,
2013-10-04 00:58:00,48.0,20.0,-100.00,SSE,165,12.0,29.0,33,0.00,,,0.00,0.000000,,2013-10-04 06:58:00,
2013-10-04 01:07:00,48.0,20.0,-100.00,SSE,165,12.0,29.0,33,0.00,,,0.00,0.000000,,2013-10-04 07:07:00,
2013-10-04 01:17:00,48.0,20.0,-100.00,SSE,165,12.0,29.0,33,0.00,,,0.00,0.000000,,2013-10-04 07:17:00,
2013-10-04 01:26:00,48.0,20.0,-100.00,SSE,165,12.0,29.0,33,0.00,,,0.00,0.000000,,2013-10-04 07:26:00,
2013-10-04 01:34:00,46.0,20.0,-100.00,SSE,156,11.0,23.0,35,0.00,,,0.00,0.000000,,2013-10-04 07:34:00,
2013-10-04 01:58:00,46.0,20.0,-100.00,SSE,156,11.0,23.0,35,0.00,,,0.00,0.000000,,2013-10-04 07:58:00,
2013-10-04 02:07:00,46.0,20.0,-100.00,SSE,156,11.0,23.0,35,0.00,,,0.00,0.000000,,2013-10-04 08:07:00,
2013-10-04 02:17:00,46.0,20.0,-100.00,SSE,156,11.0,23.0,35,0.00,,,0.00,0.000000,,2013-10-04 08:17:00,
2013-10-04 02:26:00,46.0,20.0,-100.00,SSE,156,11.0,23.0,35,0.00,,,0.00,0.000000,,2013-10-04 08:26:00,
2013-10-04 02:34:00,35.0,22.0,-100.00,SW,230,12.0,23.0,59,0.00,,,0.00,0.000000,,2013-10-04 08:34:00,
2013-10-04 02:58:00,35.0,22.0,-100.00,SW,230,12.0,23.0,59,0.00,,,0.00,0.000000,,2013-10-04 08:58:00,
2013-10-04 03:06:00,35.0,22.0,-100.00,SW,230,12.0,23.0,59,0.00,,,0.00,0.000000,,2013-10-04 09:06:00,
2013-10-04 03:16:00,35.0,22.0,-100.00,SW,230,12.0,23.0,59,0.00,,,0.00,0.000000,,2013-10-04 09:16:00,
2013-10-04 03:26:00,35.0,22.0,-100.00,SW,230,12.0,23.0,59,0.00,,,0.00,0.000000,,2013-10-04 09:26:00,
2013-10-04 04:34:00,29.0,21.0,-100.00,West,266,18.0,40.0,73,0.00,,,0.00,0.000000,,2013-10-04 10:34:00,
2013-10-04 05:19:00,29.0,21.0,-100.00,West,266,18.0,40.0,73,0.00,,,0.00,0.000000,,2013-10-04 11:19:00,
2013-10-04 05:28:00,29.0,21.0,-100.00,West,266,18.0,40.0,73,0.00,,,0.00,0.000000,,2013-10-04 11:28:00,
2013-10-04 05:34:00,29.0,18.0,-100.00,WSW,256,16.0,31.0,62,0.00,,,0.00,0.000000,,2013-10-04 11:34:00,
2013-10-04 06:00:00,29.0,18.0,-100.00,WSW,256,16.0,31.0,62,0.00,,,0.00,0.000000,,2013-10-04 12:00:00,
2013-10-04 06:09:00,29.0,18.0,-100.00,WSW,256,16.0,31.0,62,0.00,,,0.00,0.000000,,2013-10-04 12:09:00,
2013-10-04 06:19:00,29.0,18.0,-100.00,WSW,256,16.0,31.0,62,0.00,,,0.00,0.000000,,2013-10-04 12:19:00,
2013-10-04 06:28:00,29.0,18.0,-100.00,WSW,256,16.0,31.0,62,0.00,,,0.00,0.000000,,2013-10-04 12:28:00,
2013-10-04 07:34:00,27.0,11.0,-100.00,WSW,254,23.0,40.0,51,-99.99,,,0.00,5.000000,,2013-10-04 13:34:00,
2013-10-04 07:59:00,27.0,11.0,-100.00,WSW,254,23.0,40.0,51,-99.99,,,0.00,5.000000,,2013-10-04 13:59:00,
2013-10-04 08:09:00,27.0,11.0,-100.00,WSW,254,23.0,40.0,51,-99.99,,,0.00,5.000000,,2013-10-04 14:09:00,
2013-10-04 08:18:00,27.0,11.0,-100.00,WSW,254,23.0,40.0,51,-99.99,,,0.00,5.000000,,2013-10-04 14:18:00,
2013-10-04 08:28:00,27.0,11.0,-100.00,WSW,254,23.0,40.0,51,-99.99,,,0.00,5.000000,,2013-10-04 14:28:00,
2013-10-04 08:34:00,27.0,9.0,-100.00,WSW,252,24.0,39.0,46,0.00,,,0.00,17.000000,,2013-10-04 14:34:00,
2013-10-04 09:00:00,27.0,9.0,-100.00,WSW,252,24.0,39.0,46,0.00,,,0.00,17.000000,,2013-10-04 15:00:00,
2013-10-04 09:09:00,27.0,9.0,-100.00,WSW,252,24.0,39.0,46,0.00,,,0.00,17.000000,,2013-10-04 15:09:00,
2013-10-04 09:19:00,27.0,9.0,-100.00,WSW,252,24.0,39.0,46,0.00,,,0.00,17.000000,,2013-10-04 15:19:00,
2013-10-04 09:28:00,27.0,9.0,-100.00,WSW,252,24.0,39.0,46,0.00,,,0.00,17.000000,,2013-10-04 15:28:00,
2013-10-04 09:34:00,29.0,8.0,-100.00,West,260,20.0,35.0,41,0.00,,,0.00,278.000000,,2013-10-04 15:34:00,
2013-10-04 10:01:00,29.0,8.0,-100.00,West,260,20.0,35.0,41,0.00,,,0.00,278.000000,,2013-10-04 16:01:00,
2013-10-04 10:10:00,29.0,8.0,-100.00,West,260,20.0,35.0,41,0.00,,,0.00,278.000000,,2013-10-04 16:10:00,
2013-10-04 10:19:00,29.0,8.0,-100.00,West,260,20.0,35.0,41,0.00,,,0.00,278.000000,,2013-10-04 16:19:00,
2013-10-04 10:29:00,29.0,8.0,-100.00,West,260,20.0,35.0,41,0.00,,,0.00,278.000000,,2013-10-04 16:29:00,
2013-10-04 11:00:00,32.0,7.0,-100.00,WSW,248,18.0,32.0,35,0.00,,,0.00,573.000000,,2013-10-04 17:00:00,
2013-10-04 11:09:00,32.0,7.0,-100.00,WSW,248,18.0,32.0,35,0.00,,,0.00,573.000000,,2013-10-04 17:09:00,
2013-10-04 11:19:00,32.0,7.0,-100.00,WSW,248,18.0,32.0,35,0.00,,,0.00,573.000000,,2013-10-04 17:19:00,
2013-10-04 11:29:00,32.0,7.0,-100.00,WSW,248,18.0,32.0,35,0.00,,,0.00,573.000000,,2013-10-04 17:29:00,
2013-10-04 11:34:00,33.0,5.0,-100.00,WSW,258,18.0,35.0,30,0.00,,,0.00,717.000000,,2013-10-04 17:34:00,
2013-10-04 12:02:00,33.0,5.0,-100.00,WSW,258,18.0,35.0,30,0.00,,,0.00,717.000000,,2013-10-04 18:02:00,
2013-10-04 12:10:00,33.0,5.0,-100.00,WSW,258,18.0,35.0,30,0.00,,,0.00,717.000000,,2013-10-04 18:10:00,
2013-10-04 12:20:00,33.0,5.0,-100.00,WSW,258,18.0,35.0,30,0.00,,,0.00,717.000000,,2013-10-04 18:20:00,
2013-10-04 12:30:00,33.0,5.0,-100.00,WSW,258,18.0,35.0,30,0.00,,,0.00,717.000000,,2013-10-04 18:30:00,
2013-10-04 12:56:00,35.0,5.0,-100.00,West,270,19.0,29.0,28,0.00,,,0.00,802.000000,,2013-10-04 18:56:00,
2013-10-04 13:02:00,35.0,5.0,-100.00,West,270,19.0,29.0,28,0.00,,,0.00,802.000000,,2013-10-04 19:02:00,
2013-10-04 13:12:00,35.0,5.0,-100.00,West,270,19.0,29.0,28,0.00,,,0.00,802.000000,,2013-10-04 19:12:00,
2013-10-04 13:22:00,35.0,5.0,-100.00,West,270,19.0,29.0,28,0.00,,,0.00,802.000000,,2013-10-04 19:22:00,
2013-10-04 13:32:00,35.0,5.0,-100.00,West,270,19.0,29.0,28,0.00,,,0.00,802.000000,,2013-10-04 19:32:00,
2013-10-04 13:52:00,37.0,7.0,-100.00,West,279,16.0,30.0,28,0.00,,,0.00,816.000000,,2013-10-04 19:52:00,
2013-10-04 14:02:00,37.0,7.0,-100.00,West,279,16.0,30.0,28,0.00,,,0.00,816.000000,,2013-10-04 20:02:00,
2013-10-04 14:11:00,37.0,7.0,-100.00,West,279,16.0,30.0,28,0.00,,,0.00,816.000000,,2013-10-04 20:11:00,
2013-10-04 14:22:00,37.0,7.0,-100.00,West,279,16.0,30.0,28,0.00,,,0.00,816.000000,,2013-10-04 20:22:00,
2013-10-04 14:32:00,37.0,7.0,-100.00,West,279,16.0,30.0,28,0.00,,,0.00,816.000000,,2013-10-04 20:32:00,
2013-10-04 14:53:00,35.0,13.0,-100.00,WNW,299,18.0,30.0,39,0.00,,,0.00,761.000000,,2013-10-04 20:53:00,
2013-10-04 15:01:00,35.0,13.0,-100.00,WNW,299,18.0,30.0,39,0.00,,,0.00,761.000000,,2013-10-04 21:01:00,
2013-10-04 15:12:00,35.0,13.0,-100.00,WNW,299,18.0,30.0,39,0.00,,,0.00,761.000000,,2013-10-04 21:12:00,
2013-10-04 15:22:00,35.0,13.0,-100.00,WNW,299,18.0,30.0,39,0.00,,,0.00,761.000000,,2013-10-04 21:22:00,
2013-10-04 15:33:00,35.0,13.0,-100.00,WNW,299,18.0,30.0,39,0.00,,,0.00,761.000000,,2013-10-04 21:33:00,
2013-10-04 15:54:00,36.0,9.0,-100.00,WNW,283,21.0,33.0,32,0.00,,,0.00,556.000000,,2013-10-04 21:54:00,
2013-10-04 16:03:00,36.0,9.0,-100.00,WNW,283,21.0,33.0,32,0.00,,,0.00,556.000000,,2013-10-04 22:03:00,
2013-10-04 16:12:00,36.0,9.0,-100.00,WNW,283,21.0,33.0,32,0.00,,,0.00,556.000000,,2013-10-04 22:12:00,
2013-10-04 16:23:00,36.0,9.0,-100.00,WNW,283,21.0,33.0,32,0.00,,,0.00,556.000000,,2013-10-04 22:23:00,
2013-10-04 16:33:00,36.0,9.0,-100.00,WNW,283,21.0,33.0,32,0.00,,,0.00,556.000000,,2013-10-04 22:33:00,
2013-10-04 16:52:00,33.0,11.0,-100.00,West,277,25.0,37.0,39,0.00,,,0.00,478.000000,,2013-10-04 22:52:00,
2013-10-04 17:03:00,33.0,11.0,-100.00,West,277,25.0,37.0,39,0.00,,,0.00,478.000000,,2013-10-04 23:03:00,
2013-10-04 17:12:00,33.0,11.0,-100.00,West,277,25.0,37.0,39,0.00,,,0.00,478.000000,,2013-10-04 23:12:00,
2013-10-04 17:22:00,33.0,11.0,-100.00,West,277,25.0,37.0,39,0.00,,,0.00,478.000000,,2013-10-04 23:22:00,
2013-10-04 17:33:00,33.0,11.0,-100.00,West,277,25.0,37.0,39,0.00,,,0.00,478.000000,,2013-10-04 23:33:00,
2013-10-04 17:53:00,33.0,6.0,-100.00,West,265,21.0,34.0,31,0.00,,,0.00,316.000000,,2013-10-04 23:53:00,
2013-10-04 18:02:00,33.0,6.0,-100.00,West,265,21.0,34.0,31,0.00,,,0.00,316.000000,,2013-10-05 00:02:00,
2013-10-04 18:12:00,33.0,6.0,-100.00,West,265,21.0,34.0,31,0.00,,,0.00,316.000000,,2013-10-05 00:12:00,
2013-10-04 18:22:00,33.0,6.0,-100.00,West,265,21.0,34.0,31,0.00,,,0.00,316.000000,,2013-10-05 00:22:00,
2013-10-04 18:32:00,33.0,6.0,-100.00,West,265,21.0,34.0,31,0.00,,,0.00,316.000000,,2013-10-05 00:32:00,
2013-10-04 18:53:00,29.0,7.0,-100.00,West,274,18.0,35.0,38,0.00,,,0.00,97.000000,,2013-10-05 00:53:00,
2013-10-04 19:02:00,29.0,7.0,-100.00,West,274,18.0,35.0,38,0.00,,,0.00,97.000000,,2013-10-05 01:02:00,
2013-10-04 19:11:00,29.0,7.0,-100.00,West,274,18.0,35.0,38,0.00,,,0.00,97.000000,,2013-10-05 01:11:00,
2013-10-04 19:21:00,29.0,7.0,-100.00,West,274,18.0,35.0,38,0.00,,,0.00,97.000000,,2013-10-05 01:21:00,
2013-10-04 19:32:00,29.0,7.0,-100.00,West,274,18.0,35.0,38,0.00,,,0.00,97.000000,,2013-10-05 01:32:00,
2013-10-04 19:52:00,28.0,9.0,-100.00,West,275,15.0,33.0,45,0.00,,,0.00,2.000000,,2013-10-05 01:52:00,
2013-10-04 20:02:00,28.0,9.0,-100.00,West,275,15.0,33.0,45,0.00,,,0.00,2.000000,,2013-10-05 02:02:00,
2013-10-04 20:11:00,28.0,9.0,-100.00,West,275,15.0,33.0,45,0.00,,,0.00,2.000000,,2013-10-05 02:11:00,
2013-10-04 20:22:00,28.0,9.0,-100.00,West,275,15.0,33.0,45,0.00,,,0.00,2.000000,,2013-10-05 02:22:00,
2013-10-04 20:32:00,28.0,9.0,-100.00,West,275,15.0,33.0,45,0.00,,,0.00,2.000000,,2013-10-05 02:32:00,
2013-10-04 20:34:00,27.0,9.0,-100.00,West,266,15.0,24.0,45,0.00,,,0.00,0.000000,,2013-10-05 02:34:00,
2013-10-04 20:52:00,27.0,9.0,-100.00,West,266,15.0,24.0,45,0.00,,,0.00,0.000000,,2013-10-05 02:52:00,
2013-10-04 21:02:00,27.0,9.0,-100.00,West,266,15.0,24.0,45,0.00,,,0.00,0.000000,,2013-10-05 03:02:00,
2013-10-04 21:12:00,27.0,9.0,-100.00,West,266,15.0,24.0,45,0.00,,,0.00,0.000000,,2013-10-05 03:12:00,
2013-10-04 21:23:00,27.0,9.0,-100.00,West,266,15.0,24.0,45,0.00,,,0.00,0.000000,,2013-10-05 03:23:00,
2013-10-04 21:55:00,26.0,7.0,-100.00,West,270,15.0,28.0,44,0.00,,,0.00,0.000000,,2013-10-05 03:55:00,
2013-10-04 22:04:00,26.0,7.0,-100.00,West,270,15.0,28.0,44,0.00,,,0.00,0.000000,,2013-10-05 04:04:00,
2013-10-04 22:14:00,26.0,7.0,-100.00,West,270,15.0,28.0,44,0.00,,,0.00,0.000000,,2013-10-05 04:14:00,
2013-10-04 22:24:00,26.0,7.0,-100.00,West,270,15.0,28.0,44,0.00,,,0.00,0.000000,,2013-10-05 04:24:00,
2013-10-04 22:33:00,26.0,7.0,-100.00,West,270,15.0,28.0,44,0.00,,,0.00,0.000000,,2013-10-05 04:33:00,
2013-10-04 22:34:00,25.0,7.0,-100.00,West,280,9.0,28.0,46,0.00,,,0.00,0.000000,,2013-10-05 04:34:00,
2013-10-04 22:54:00,25.0,7.0,-100.00,West,280,9.0,28.0,46,0.00,,,0.00,0.000000,,2013-10-05 04:54:00,
2013-10-04 23:04:00,25.0,7.0,-100.00,West,280,9.0,28.0,46,0.00,,,0.00,0.000000,,2013-10-05 05:04:00,
2013-10-04 23:13:00,25.0,7.0,-100.00,West,280,9.0,28.0,46,0.00,,,0.00,0.000000,,2013-10-05 05:13:00,
2013-10-04 23:22:00,25.0,7.0,-100.00,West,280,9.0,28.0,46,0.00,,,0.00,0.000000,,2013-10-05 05:22:00,
2013-10-04 23:52:00,24.0,8.0,-100.00,WNW,294,11.0,25.0,50,0.00,,,0.00,0.000000,,2013-10-05 05:52:00,